Terminal Aerodrome Forecast
Issued by NWS

Home | Current Version | Previous Version | Text Only | Print | Product List | Glossary On
Versions: 1 2 3 4 5 6 7 8 9 10 11 12 13 14 15 16
000
FTUS46 KMTR 191722
TAFMRY
TAF
KMRY 191722Z 1918/2018 31005KT P6SM BKN250
     FM192200 28005KT P6SM SCT250
     FM200300 11004KT P6SM BKN150
     FM200700 10003KT P6SM FEW040 OVC100
     FM201200 VRB02KT P6SM SCT050 BKN090 BKN200=

USA.gov is the U.S. government's official web portal to all federal, state and local government web resources and services.